MMCL

Federal de Bachigualato International Airport

Airport
ICAO code
MMCL
IATA Code
CUL
Summary
ICAO Region
CARSAM
ICAO Territory
Location

Sinaloa, Sinaloa

Serving
Culiacan
Elevation
108 ft
Coordinates
24° 45' 52" N , 107° 28' 29" W
Metar
MMCL 181248Z 00000KT 10SM SKC 19/12 A2985 RMK HZY RTS

Runways

Designator Length Width Surface Rops
2/20 2300 45 ASP No/No

Airport map

Aerial View

SKYbrary Partners:

Safety knowledge contributed by: